sensor_id;sensor_type;location;lat;lon;timestamp;P1;durP1;ratioP1;P2;durP2;ratioP2
77522;SDS011;66637;-29.628;-49.938;2023-02-28T00:01:33;11.82;;;3.90;;
77522;SDS011;66637;-29.628;-49.938;2023-02-28T00:04:04;8.20;;;3.60;;
77522;SDS011;66637;-29.628;-49.938;2023-02-28T00:06:35;13.23;;;3.67;;
77522;SDS011;66637;-29.628;-49.938;2023-02-28T00:09:08;8.35;;;3.45;;
77522;SDS011;66637;-29.628;-49.938;2023-02-28T00:11:40;10.68;;;3.60;;
77522;SDS011;66637;-29.628;-49.938;2023-02-28T00:14:14;8.07;;;3.30;;
77522;SDS011;66637;-29.628;-49.938;2023-02-28T00:16:45;14.45;;;3.55;;
77522;SDS011;66637;-29.628;-49.938;2023-02-28T00:19:19;11.30;;;3.83;;
77522;SDS011;66637;-29.628;-49.938;2023-02-28T00:21:50;9.02;;;3.35;;
77522;SDS011;66637;-29.628;-49.938;2023-02-28T00:24:21;9.45;;;3.47;;
77522;SDS011;66637;-29.628;-49.938;2023-02-28T00:26:52;9.00;;;3.65;;
77522;SDS011;66637;-29.628;-49.938;2023-02-28T00:29:22;8.23;;;3.30;;
77522;SDS011;66637;-29.628;-49.938;2023-02-28T00:31:55;6.57;;;2.83;;
77522;SDS011;66637;-29.628;-49.938;2023-02-28T00:34:26;10.52;;;3.40;;
77522;SDS011;66637;-29.628;-49.938;2023-02-28T00:36:57;7.78;;;3.42;;
77522;SDS011;66637;-29.628;-49.938;2023-02-28T00:39:28;8.80;;;3.20;;
77522;SDS011;66637;-29.628;-49.938;2023-02-28T00:41:58;4.30;;;2.83;;
77522;SDS011;66637;-29.628;-49.938;2023-02-28T00:44:30;6.90;;;3.17;;
77522;SDS011;66637;-29.628;-49.938;2023-02-28T00:47:04;7.18;;;3.33;;
77522;SDS011;66637;-29.628;-49.938;2023-02-28T00:49:35;7.78;;;3.38;;
77522;SDS011;66637;-29.628;-49.938;2023-02-28T00:52:19;8.30;;;3.85;;
77522;SDS011;66637;-29.628;-49.938;2023-02-28T00:54:55;8.77;;;3.58;;
77522;SDS011;66637;-29.628;-49.938;2023-02-28T00:57:26;6.63;;;3.25;;
77522;SDS011;66637;-29.628;-49.938;2023-02-28T00:59:56;5.22;;;2.80;;
77522;SDS011;66637;-29.628;-49.938;2023-02-28T01:02:28;5.72;;;3.33;;
77522;SDS011;66637;-29.628;-49.938;2023-02-28T01:05:09;6.05;;;3.40;;
77522;SDS011;66637;-29.628;-49.938;2023-02-28T01:07:52;7.38;;;3.72;;
77522;SDS011;66637;-29.628;-49.938;2023-02-28T01:10:27;5.18;;;3.40;;
77522;SDS011;66637;-29.628;-49.938;2023-02-28T01:13:06;9.95;;;3.80;;
77522;SDS011;66637;-29.628;-49.938;2023-02-28T01:15:55;8.45;;;4.05;;
77522;SDS011;66637;-29.628;-49.938;2023-02-28T01:18:28;6.32;;;4.05;;
77522;SDS011;66637;-29.628;-49.938;2023-02-28T01:21:07;7.00;;;3.50;;
77522;SDS011;66637;-29.628;-49.938;2023-02-28T01:23:40;7.57;;;3.90;;
77522;SDS011;66637;-29.628;-49.938;2023-02-28T01:26:21;7.15;;;4.00;;
77522;SDS011;66637;-29.628;-49.938;2023-02-28T01:28:54;8.32;;;3.88;;
77522;SDS011;66637;-29.628;-49.938;2023-02-28T01:31:25;6.43;;;4.20;;
77522;SDS011;66637;-29.628;-49.938;2023-02-28T01:34:02;10.38;;;4.50;;
77522;SDS011;66637;-29.628;-49.938;2023-02-28T01:36:33;8.48;;;4.32;;
77522;SDS011;66637;-29.628;-49.938;2023-02-28T01:39:06;5.93;;;4.00;;
77522;SDS011;66637;-29.628;-49.938;2023-02-28T01:41:38;9.52;;;4.47;;
77522;SDS011;66637;-29.628;-49.938;2023-02-28T01:47:17;7.63;;;4.20;;
77522;SDS011;66637;-29.628;-49.938;2023-02-28T01:49:49;8.82;;;4.40;;
77522;SDS011;66637;-29.628;-49.938;2023-02-28T01:52:22;6.82;;;4.05;;
77522;SDS011;66637;-29.628;-49.938;2023-02-28T01:54:55;7.57;;;4.68;;
77522;SDS011;66637;-29.628;-49.938;2023-02-28T01:57:33;7.18;;;3.63;;
77522;SDS011;66637;-29.628;-49.938;2023-02-28T02:00:16;6.53;;;3.45;;
77522;SDS011;66637;-29.628;-49.938;2023-02-28T02:02:50;6.18;;;3.75;;
77522;SDS011;66637;-29.628;-49.938;2023-02-28T02:05:28;6.53;;;3.22;;
77522;SDS011;66637;-29.628;-49.938;2023-02-28T02:08:28;6.78;;;3.60;;
77522;SDS011;66637;-29.628;-49.938;2023-02-28T02:11:00;5.40;;;3.40;;
77522;SDS011;66637;-29.628;-49.938;2023-02-28T02:13:42;6.72;;;3.55;;
77522;SDS011;66637;-29.628;-49.938;2023-02-28T02:27:39;5.15;;;3.65;;
77522;SDS011;66637;-29.628;-49.938;2023-02-28T02:36:06;6.85;;;3.20;;
77522;SDS011;66637;-29.628;-49.938;2023-02-28T02:39:19;9.00;;;3.30;;
77522;SDS011;66637;-29.628;-49.938;2023-02-28T02:41:53;4.63;;;3.20;;
77522;SDS011;66637;-29.628;-49.938;2023-02-28T02:44:34;4.82;;;3.30;;
77522;SDS011;66637;-29.628;-49.938;2023-02-28T02:47:08;7.20;;;3.55;;
77522;SDS011;66637;-29.628;-49.938;2023-02-28T02:49:55;7.47;;;3.20;;
77522;SDS011;66637;-29.628;-49.938;2023-02-28T02:52:32;4.90;;;3.00;;
77522;SDS011;66637;-29.628;-49.938;2023-02-28T02:55:08;7.32;;;3.17;;
77522;SDS011;66637;-29.628;-49.938;2023-02-28T03:00:21;7.75;;;3.28;;
77522;SDS011;66637;-29.628;-49.938;2023-02-28T03:02:56;6.68;;;3.28;;
77522;SDS011;66637;-29.628;-49.938;2023-02-28T03:05:35;6.85;;;3.67;;
77522;SDS011;66637;-29.628;-49.938;2023-02-28T03:08:15;6.95;;;3.63;;
77522;SDS011;66637;-29.628;-49.938;2023-02-28T03:10:50;6.10;;;3.35;;
77522;SDS011;66637;-29.628;-49.938;2023-02-28T03:19:18;5.50;;;3.00;;
77522;SDS011;66637;-29.628;-49.938;2023-02-28T03:30:22;4.50;;;3.10;;
77522;SDS011;66637;-29.628;-49.938;2023-02-28T03:35:56;6.50;;;3.30;;
77522;SDS011;66637;-29.628;-49.938;2023-02-28T03:38:34;5.78;;;3.53;;
77522;SDS011;66637;-29.628;-49.938;2023-02-28T03:41:31;6.90;;;3.60;;
77522;SDS011;66637;-29.628;-49.938;2023-02-28T03:44:08;7.25;;;3.40;;
77522;SDS011;66637;-29.628;-49.938;2023-02-28T03:46:52;5.10;;;3.53;;
77522;SDS011;66637;-29.628;-49.938;2023-02-28T03:49:49;7.85;;;3.38;;
77522;SDS011;66637;-29.628;-49.938;2023-02-28T03:52:22;5.63;;;3.00;;
77522;SDS011;66637;-29.628;-49.938;2023-02-28T03:54:59;7.00;;;3.28;;
77522;SDS011;66637;-29.628;-49.938;2023-02-28T03:57:41;4.70;;;3.15;;
77522;SDS011;66637;-29.628;-49.938;2023-02-28T04:00:31;6.50;;;3.45;;
77522;SDS011;66637;-29.628;-49.938;2023-02-28T04:03:08;6.88;;;3.03;;
77522;SDS011;66637;-29.628;-49.938;2023-02-28T04:05:46;6.15;;;3.38;;
77522;SDS011;66637;-29.628;-49.938;2023-02-28T04:08:24;6.50;;;3.40;;
77522;SDS011;66637;-29.628;-49.938;2023-02-28T04:10:59;5.40;;;3.47;;
77522;SDS011;66637;-29.628;-49.938;2023-02-28T04:13:36;5.00;;;3.03;;
77522;SDS011;66637;-29.628;-49.938;2023-02-28T04:16:07;4.72;;;3.10;;
77522;SDS011;66637;-29.628;-49.938;2023-02-28T04:19:01;6.95;;;2.88;;
77522;SDS011;66637;-29.628;-49.938;2023-02-28T04:21:38;5.97;;;3.10;;
77522;SDS011;66637;-29.628;-49.938;2023-02-28T04:24:18;7.13;;;3.20;;
77522;SDS011;66637;-29.628;-49.938;2023-02-28T04:26:58;9.30;;;3.13;;
77522;SDS011;66637;-29.628;-49.938;2023-02-28T04:29:30;5.97;;;3.05;;
77522;SDS011;66637;-29.628;-49.938;2023-02-28T04:34:35;4.35;;;2.92;;
77522;SDS011;66637;-29.628;-49.938;2023-02-28T04:37:05;4.18;;;3.28;;
77522;SDS011;66637;-29.628;-49.938;2023-02-28T04:39:41;4.55;;;2.90;;
77522;SDS011;66637;-29.628;-49.938;2023-02-28T04:42:14;4.25;;;2.90;;
77522;SDS011;66637;-29.628;-49.938;2023-02-28T04:44:45;15.48;;;3.70;;
77522;SDS011;66637;-29.628;-49.938;2023-02-28T04:47:17;12.73;;;3.45;;
77522;SDS011;66637;-29.628;-49.938;2023-02-28T04:49:47;11.25;;;3.92;;
77522;SDS011;66637;-29.628;-49.938;2023-02-28T04:52:18;9.27;;;3.38;;
77522;SDS011;66637;-29.628;-49.938;2023-02-28T04:54:50;6.50;;;2.90;;
77522;SDS011;66637;-29.628;-49.938;2023-02-28T04:57:20;5.45;;;3.05;;
77522;SDS011;66637;-29.628;-49.938;2023-02-28T04:59:51;8.40;;;3.90;;
77522;SDS011;66637;-29.628;-49.938;2023-02-28T05:02:22;7.38;;;3.30;;
77522;SDS011;66637;-29.628;-49.938;2023-02-28T05:04:54;5.50;;;3.00;;
77522;SDS011;66637;-29.628;-49.938;2023-02-28T05:07:25;5.45;;;2.88;;
77522;SDS011;66637;-29.628;-49.938;2023-02-28T05:09:55;6.47;;;3.40;;
77522;SDS011;66637;-29.628;-49.938;2023-02-28T05:12:26;4.72;;;3.33;;
77522;SDS011;66637;-29.628;-49.938;2023-02-28T05:14:57;5.20;;;2.95;;
77522;SDS011;66637;-29.628;-49.938;2023-02-28T05:17:28;4.78;;;3.10;;
77522;SDS011;66637;-29.628;-49.938;2023-02-28T05:20:00;4.55;;;3.00;;
77522;SDS011;66637;-29.628;-49.938;2023-02-28T05:22:42;5.78;;;2.83;;
77522;SDS011;66637;-29.628;-49.938;2023-02-28T05:25:16;6.55;;;3.65;;
77522;SDS011;66637;-29.628;-49.938;2023-02-28T05:27:48;3.92;;;2.92;;
77522;SDS011;66637;-29.628;-49.938;2023-02-28T05:30:20;4.57;;;2.88;;
77522;SDS011;66637;-29.628;-49.938;2023-02-28T05:32:51;6.72;;;3.17;;
77522;SDS011;66637;-29.628;-49.938;2023-02-28T05:35:21;6.68;;;3.00;;
77522;SDS011;66637;-29.628;-49.938;2023-02-28T05:37:53;9.23;;;3.08;;
77522;SDS011;66637;-29.628;-49.938;2023-02-28T05:40:24;5.60;;;3.05;;
77522;SDS011;66637;-29.628;-49.938;2023-02-28T05:42:55;5.90;;;3.13;;
77522;SDS011;66637;-29.628;-49.938;2023-02-28T05:45:26;5.85;;;3.13;;
77522;SDS011;66637;-29.628;-49.938;2023-02-28T05:47:57;6.82;;;3.97;;
77522;SDS011;66637;-29.628;-49.938;2023-02-28T05:50:27;8.48;;;3.78;;
77522;SDS011;66637;-29.628;-49.938;2023-02-28T05:52:59;21.10;;;4.50;;
77522;SDS011;66637;-29.628;-49.938;2023-02-28T05:55:30;44.55;;;8.35;;
77522;SDS011;66637;-29.628;-49.938;2023-02-28T05:58:01;61.70;;;9.45;;
77522;SDS011;66637;-29.628;-49.938;2023-02-28T06:00:33;54.53;;;8.57;;
77522;SDS011;66637;-29.628;-49.938;2023-02-28T06:03:08;52.40;;;8.68;;
77522;SDS011;66637;-29.628;-49.938;2023-02-28T06:05:40;63.65;;;9.18;;
77522;SDS011;66637;-29.628;-49.938;2023-02-28T06:08:10;46.83;;;8.05;;
77522;SDS011;66637;-29.628;-49.938;2023-02-28T06:10:41;60.75;;;9.45;;
77522;SDS011;66637;-29.628;-49.938;2023-02-28T06:13:12;44.00;;;7.90;;
77522;SDS011;66637;-29.628;-49.938;2023-02-28T06:15:43;72.40;;;10.13;;
77522;SDS011;66637;-29.628;-49.938;2023-02-28T06:18:14;61.33;;;9.88;;
77522;SDS011;66637;-29.628;-49.938;2023-02-28T06:20:44;40.90;;;9.48;;
77522;SDS011;66637;-29.628;-49.938;2023-02-28T06:23:23;50.40;;;8.98;;
77522;SDS011;66637;-29.628;-49.938;2023-02-28T06:25:54;55.58;;;8.70;;
77522;SDS011;66637;-29.628;-49.938;2023-02-28T06:28:28;30.27;;;5.47;;
77522;SDS011;66637;-29.628;-49.938;2023-02-28T06:30:58;19.33;;;4.85;;
77522;SDS011;66637;-29.628;-49.938;2023-02-28T06:33:28;19.98;;;3.88;;
77522;SDS011;66637;-29.628;-49.938;2023-02-28T06:35:58;22.05;;;5.55;;
77522;SDS011;66637;-29.628;-49.938;2023-02-28T06:38:29;22.25;;;5.95;;
77522;SDS011;66637;-29.628;-49.938;2023-02-28T06:40:59;25.63;;;5.10;;
77522;SDS011;66637;-29.628;-49.938;2023-02-28T06:43:32;23.38;;;5.15;;
77522;SDS011;66637;-29.628;-49.938;2023-02-28T06:46:06;14.57;;;4.13;;
77522;SDS011;66637;-29.628;-49.938;2023-02-28T06:48:39;13.02;;;3.63;;
77522;SDS011;66637;-29.628;-49.938;2023-02-28T06:51:11;11.93;;;3.78;;
77522;SDS011;66637;-29.628;-49.938;2023-02-28T06:53:44;8.73;;;3.67;;
77522;SDS011;66637;-29.628;-49.938;2023-02-28T06:56:17;6.25;;;3.72;;
77522;SDS011;66637;-29.628;-49.938;2023-02-28T06:58:50;9.38;;;3.83;;
77522;SDS011;66637;-29.628;-49.938;2023-02-28T07:01:22;8.50;;;3.50;;
77522;SDS011;66637;-29.628;-49.938;2023-02-28T07:03:53;7.47;;;3.13;;
77522;SDS011;66637;-29.628;-49.938;2023-02-28T07:06:25;5.65;;;3.67;;
77522;SDS011;66637;-29.628;-49.938;2023-02-28T07:08:56;9.13;;;4.10;;
77522;SDS011;66637;-29.628;-49.938;2023-02-28T07:11:27;4.95;;;3.22;;
77522;SDS011;66637;-29.628;-49.938;2023-02-28T07:13:58;7.32;;;3.70;;
77522;SDS011;66637;-29.628;-49.938;2023-02-28T07:16:28;12.88;;;3.72;;
77522;SDS011;66637;-29.628;-49.938;2023-02-28T07:18:59;5.68;;;3.53;;
77522;SDS011;66637;-29.628;-49.938;2023-02-28T07:21:29;7.55;;;3.53;;
77522;SDS011;66637;-29.628;-49.938;2023-02-28T07:24:00;10.00;;;3.60;;
77522;SDS011;66637;-29.628;-49.938;2023-02-28T07:26:31;7.53;;;3.63;;
77522;SDS011;66637;-29.628;-49.938;2023-02-28T07:29:05;6.80;;;4.30;;
77522;SDS011;66637;-29.628;-49.938;2023-02-28T07:31:35;6.78;;;4.00;;
77522;SDS011;66637;-29.628;-49.938;2023-02-28T07:34:07;5.03;;;3.70;;
77522;SDS011;66637;-29.628;-49.938;2023-02-28T07:36:38;4.68;;;3.55;;
77522;SDS011;66637;-29.628;-49.938;2023-02-28T07:39:10;5.32;;;3.50;;
77522;SDS011;66637;-29.628;-49.938;2023-02-28T07:41:40;7.13;;;3.97;;
77522;SDS011;66637;-29.628;-49.938;2023-02-28T07:44:13;6.70;;;4.00;;
77522;SDS011;66637;-29.628;-49.938;2023-02-28T07:46:44;6.85;;;4.13;;
77522;SDS011;66637;-29.628;-49.938;2023-02-28T07:49:15;7.43;;;3.75;;
77522;SDS011;66637;-29.628;-49.938;2023-02-28T07:51:46;7.00;;;4.50;;
77522;SDS011;66637;-29.628;-49.938;2023-02-28T07:54:16;8.57;;;3.95;;
77522;SDS011;66637;-29.628;-49.938;2023-02-28T07:56:47;5.90;;;3.83;;
77522;SDS011;66637;-29.628;-49.938;2023-02-28T07:59:18;6.22;;;4.30;;
77522;SDS011;66637;-29.628;-49.938;2023-02-28T08:01:48;6.35;;;3.80;;
77522;SDS011;66637;-29.628;-49.938;2023-02-28T08:04:19;6.93;;;3.53;;
77522;SDS011;66637;-29.628;-49.938;2023-02-28T08:06:49;8.35;;;3.80;;
77522;SDS011;66637;-29.628;-49.938;2023-02-28T08:09:23;6.28;;;3.60;;
77522;SDS011;66637;-29.628;-49.938;2023-02-28T08:11:53;8.75;;;3.85;;
77522;SDS011;66637;-29.628;-49.938;2023-02-28T08:14:24;6.78;;;3.70;;
77522;SDS011;66637;-29.628;-49.938;2023-02-28T08:16:55;7.15;;;3.28;;
77522;SDS011;66637;-29.628;-49.938;2023-02-28T08:19:26;10.52;;;3.65;;
77522;SDS011;66637;-29.628;-49.938;2023-02-28T08:21:57;8.77;;;3.90;;
77522;SDS011;66637;-29.628;-49.938;2023-02-28T08:24:29;4.55;;;3.45;;
77522;SDS011;66637;-29.628;-49.938;2023-02-28T08:27:00;7.57;;;3.80;;
77522;SDS011;66637;-29.628;-49.938;2023-02-28T08:29:32;4.38;;;3.13;;
77522;SDS011;66637;-29.628;-49.938;2023-02-28T08:32:03;6.85;;;3.47;;
77522;SDS011;66637;-29.628;-49.938;2023-02-28T08:34:47;5.65;;;3.55;;
77522;SDS011;66637;-29.628;-49.938;2023-02-28T08:37:18;5.30;;;3.20;;
77522;SDS011;66637;-29.628;-49.938;2023-02-28T08:39:50;6.63;;;3.30;;
77522;SDS011;66637;-29.628;-49.938;2023-02-28T08:42:23;5.20;;;2.97;;
77522;SDS011;66637;-29.628;-49.938;2023-02-28T08:44:54;9.13;;;3.53;;
77522;SDS011;66637;-29.628;-49.938;2023-02-28T08:47:25;5.85;;;3.47;;
77522;SDS011;66637;-29.628;-49.938;2023-02-28T08:49:55;7.97;;;3.25;;
77522;SDS011;66637;-29.628;-49.938;2023-02-28T08:52:26;6.35;;;3.50;;
77522;SDS011;66637;-29.628;-49.938;2023-02-28T08:54:58;6.50;;;3.40;;
77522;SDS011;66637;-29.628;-49.938;2023-02-28T08:57:29;7.88;;;3.45;;
77522;SDS011;66637;-29.628;-49.938;2023-02-28T09:00:00;6.20;;;3.60;;
77522;SDS011;66637;-29.628;-49.938;2023-02-28T09:02:34;5.43;;;3.20;;
77522;SDS011;66637;-29.628;-49.938;2023-02-28T09:05:06;8.18;;;3.45;;
77522;SDS011;66637;-29.628;-49.938;2023-02-28T09:07:38;5.90;;;3.53;;
77522;SDS011;66637;-29.628;-49.938;2023-02-28T09:10:09;5.65;;;3.10;;
77522;SDS011;66637;-29.628;-49.938;2023-02-28T09:12:39;6.38;;;3.47;;
77522;SDS011;66637;-29.628;-49.938;2023-02-28T09:15:10;6.72;;;3.22;;
77522;SDS011;66637;-29.628;-49.938;2023-02-28T09:17:42;5.50;;;3.78;;
77522;SDS011;66637;-29.628;-49.938;2023-02-28T09:20:15;7.38;;;3.55;;
77522;SDS011;66637;-29.628;-49.938;2023-02-28T09:22:46;5.72;;;3.22;;
77522;SDS011;66637;-29.628;-49.938;2023-02-28T09:25:17;6.28;;;3.20;;
77522;SDS011;66637;-29.628;-49.938;2023-02-28T09:27:48;5.95;;;3.20;;
77522;SDS011;66637;-29.628;-49.938;2023-02-28T09:30:18;8.18;;;3.20;;
77522;SDS011;66637;-29.628;-49.938;2023-02-28T09:32:48;5.72;;;3.15;;
77522;SDS011;66637;-29.628;-49.938;2023-02-28T09:35:24;4.97;;;3.08;;
77522;SDS011;66637;-29.628;-49.938;2023-02-28T09:37:56;5.43;;;3.30;;
77522;SDS011;66637;-29.628;-49.938;2023-02-28T09:40:28;5.57;;;3.70;;
77522;SDS011;66637;-29.628;-49.938;2023-02-28T09:43:00;6.13;;;3.42;;
77522;SDS011;66637;-29.628;-49.938;2023-02-28T09:45:40;4.43;;;3.03;;
77522;SDS011;66637;-29.628;-49.938;2023-02-28T09:48:15;4.10;;;2.92;;
77522;SDS011;66637;-29.628;-49.938;2023-02-28T09:50:50;5.97;;;3.15;;
77522;SDS011;66637;-29.628;-49.938;2023-02-28T09:53:27;7.00;;;2.88;;
77522;SDS011;66637;-29.628;-49.938;2023-02-28T09:56:11;5.68;;;3.22;;
77522;SDS011;66637;-29.628;-49.938;2023-02-28T10:01:51;5.88;;;3.20;;
77522;SDS011;66637;-29.628;-49.938;2023-02-28T10:09:56;5.10;;;3.17;;
77522;SDS011;66637;-29.628;-49.938;2023-02-28T10:12:30;6.22;;;3.55;;
77522;SDS011;66637;-29.628;-49.938;2023-02-28T10:15:04;5.88;;;3.63;;
77522;SDS011;66637;-29.628;-49.938;2023-02-28T10:17:39;5.38;;;3.40;;
77522;SDS011;66637;-29.628;-49.938;2023-02-28T10:20:23;6.72;;;3.42;;
77522;SDS011;66637;-29.628;-49.938;2023-02-28T10:23:10;6.78;;;3.80;;
77522;SDS011;66637;-29.628;-49.938;2023-02-28T10:25:47;9.85;;;3.83;;
77522;SDS011;66637;-29.628;-49.938;2023-02-28T10:28:26;7.78;;;3.90;;
77522;SDS011;66637;-29.628;-49.938;2023-02-28T10:30:58;6.05;;;3.53;;
77522;SDS011;66637;-29.628;-49.938;2023-02-28T10:33:34;6.00;;;3.40;;
77522;SDS011;66637;-29.628;-49.938;2023-02-28T10:36:08;5.63;;;3.20;;
77522;SDS011;66637;-29.628;-49.938;2023-02-28T10:38:47;5.68;;;3.38;;
77522;SDS011;66637;-29.628;-49.938;2023-02-28T10:41:29;5.38;;;3.42;;
77522;SDS011;66637;-29.628;-49.938;2023-02-28T10:44:13;8.10;;;3.40;;
77522;SDS011;66637;-29.628;-49.938;2023-02-28T10:46:46;6.60;;;3.40;;
77522;SDS011;66637;-29.628;-49.938;2023-02-28T10:51:55;5.10;;;3.35;;
77522;SDS011;66637;-29.628;-49.938;2023-02-28T10:54:35;4.65;;;3.15;;
77522;SDS011;66637;-29.628;-49.938;2023-02-28T10:57:11;7.78;;;3.47;;
77522;SDS011;66637;-29.628;-49.938;2023-02-28T10:59:53;8.57;;;3.40;;
77522;SDS011;66637;-29.628;-49.938;2023-02-28T11:02:57;6.68;;;3.13;;
77522;SDS011;66637;-29.628;-49.938;2023-02-28T11:05:33;5.45;;;3.33;;
77522;SDS011;66637;-29.628;-49.938;2023-02-28T11:08:13;5.70;;;3.35;;
77522;SDS011;66637;-29.628;-49.938;2023-02-28T11:10:47;7.88;;;3.15;;
77522;SDS011;66637;-29.628;-49.938;2023-02-28T11:13:34;4.70;;;3.25;;
77522;SDS011;66637;-29.628;-49.938;2023-02-28T11:16:08;8.05;;;3.10;;
77522;SDS011;66637;-29.628;-49.938;2023-02-28T11:21:29;6.80;;;3.20;;
77522;SDS011;66637;-29.628;-49.938;2023-02-28T11:30:01;42.58;;;6.65;;
77522;SDS011;66637;-29.628;-49.938;2023-02-28T11:32:34;41.83;;;7.63;;
77522;SDS011;66637;-29.628;-49.938;2023-02-28T11:37:40;54.42;;;7.90;;
77522;SDS011;66637;-29.628;-49.938;2023-02-28T11:40:15;47.15;;;7.47;;
77522;SDS011;66637;-29.628;-49.938;2023-02-28T11:43:00;53.78;;;7.43;;
77522;SDS011;66637;-29.628;-49.938;2023-02-28T12:00:15;36.33;;;6.50;;
77522;SDS011;66637;-29.628;-49.938;2023-02-28T12:09:16;41.95;;;6.75;;
77522;SDS011;66637;-29.628;-49.938;2023-02-28T12:28:37;5.93;;;2.60;;
77522;SDS011;66637;-29.628;-49.938;2023-02-28T12:31:53;25.92;;;5.10;;
77522;SDS011;66637;-29.628;-49.938;2023-02-28T12:34:21;30.70;;;5.10;;
77522;SDS011;66637;-29.628;-49.938;2023-02-28T12:36:58;38.78;;;6.18;;
77522;SDS011;66637;-29.628;-49.938;2023-02-28T12:39:38;41.83;;;7.47;;
77522;SDS011;66637;-29.628;-49.938;2023-02-28T12:44:52;32.53;;;6.15;;
77522;SDS011;66637;-29.628;-49.938;2023-02-28T12:48:00;33.75;;;5.70;;
77522;SDS011;66637;-29.628;-49.938;2023-02-28T12:50:34;34.63;;;6.07;;
77522;SDS011;66637;-29.628;-49.938;2023-02-28T12:56:23;38.55;;;5.75;;
77522;SDS011;66637;-29.628;-49.938;2023-02-28T12:59:29;24.70;;;4.55;;
77522;SDS011;66637;-29.628;-49.938;2023-02-28T13:07:49;25.67;;;5.88;;
77522;SDS011;66637;-29.628;-49.938;2023-02-28T13:10:45;41.30;;;6.20;;
77522;SDS011;66637;-29.628;-49.938;2023-02-28T13:13:24;29.75;;;4.97;;
77522;SDS011;66637;-29.628;-49.938;2023-02-28T13:16:10;25.38;;;5.38;;
77522;SDS011;66637;-29.628;-49.938;2023-02-28T13:18:45;27.15;;;5.25;;
77522;SDS011;66637;-29.628;-49.938;2023-02-28T13:21:28;22.70;;;5.50;;
77522;SDS011;66637;-29.628;-49.938;2023-02-28T13:24:01;41.72;;;7.53;;
77522;SDS011;66637;-29.628;-49.938;2023-02-28T13:37:41;29.58;;;5.70;;
77522;SDS011;66637;-29.628;-49.938;2023-02-28T13:43:00;32.53;;;6.03;;
77522;SDS011;66637;-29.628;-49.938;2023-02-28T13:45:31;25.55;;;5.50;;
77522;SDS011;66637;-29.628;-49.938;2023-02-28T13:48:20;30.08;;;5.93;;
77522;SDS011;66637;-29.628;-49.938;2023-02-28T13:50:57;28.20;;;5.75;;
77522;SDS011;66637;-29.628;-49.938;2023-02-28T13:53:46;28.10;;;6.63;;
77522;SDS011;66637;-29.628;-49.938;2023-02-28T13:56:45;37.55;;;6.38;;
77522;SDS011;66637;-29.628;-49.938;2023-02-28T14:00:15;25.70;;;5.65;;
77522;SDS011;66637;-29.628;-49.938;2023-02-28T14:05:24;24.33;;;5.03;;
77522;SDS011;66637;-29.628;-49.938;2023-02-28T14:08:03;23.58;;;4.32;;
77522;SDS011;66637;-29.628;-49.938;2023-02-28T14:10:48;36.55;;;6.93;;
77522;SDS011;66637;-29.628;-49.938;2023-02-28T14:16:21;22.85;;;4.63;;
77522;SDS011;66637;-29.628;-49.938;2023-02-28T14:19:00;29.83;;;4.95;;
77522;SDS011;66637;-29.628;-49.938;2023-02-28T14:21:36;28.15;;;6.30;;
77522;SDS011;66637;-29.628;-49.938;2023-02-28T14:30:03;34.67;;;6.07;;
77522;SDS011;66637;-29.628;-49.938;2023-02-28T14:38:46;27.25;;;4.90;;
77522;SDS011;66637;-29.628;-49.938;2023-02-28T14:41:39;22.95;;;5.43;;
77522;SDS011;66637;-29.628;-49.938;2023-02-28T14:44:13;24.48;;;4.55;;
77522;SDS011;66637;-29.628;-49.938;2023-02-28T14:47:14;16.92;;;3.85;;
77522;SDS011;66637;-29.628;-49.938;2023-02-28T14:49:45;26.05;;;4.85;;
77522;SDS011;66637;-29.628;-49.938;2023-02-28T14:52:19;19.65;;;4.50;;
77522;SDS011;66637;-29.628;-49.938;2023-02-28T14:55:05;34.88;;;5.65;;
77522;SDS011;66637;-29.628;-49.938;2023-02-28T14:57:53;29.75;;;5.65;;
77522;SDS011;66637;-29.628;-49.938;2023-02-28T15:00:27;27.10;;;4.70;;
77522;SDS011;66637;-29.628;-49.938;2023-02-28T15:03:11;18.25;;;3.55;;
77522;SDS011;66637;-29.628;-49.938;2023-02-28T15:05:54;31.27;;;4.63;;
77522;SDS011;66637;-29.628;-49.938;2023-02-28T15:08:29;22.30;;;3.83;;
77522;SDS011;66637;-29.628;-49.938;2023-02-28T15:11:06;23.90;;;4.38;;
77522;SDS011;66637;-29.628;-49.938;2023-02-28T15:13:46;21.27;;;3.72;;
77522;SDS011;66637;-29.628;-49.938;2023-02-28T15:16:25;29.42;;;5.20;;
77522;SDS011;66637;-29.628;-49.938;2023-02-28T15:19:04;33.13;;;5.38;;
77522;SDS011;66637;-29.628;-49.938;2023-02-28T15:21:43;21.35;;;5.50;;
77522;SDS011;66637;-29.628;-49.938;2023-02-28T15:24:28;26.80;;;6.35;;
77522;SDS011;66637;-29.628;-49.938;2023-02-28T15:27:06;21.80;;;4.45;;
77522;SDS011;66637;-29.628;-49.938;2023-02-28T15:29:46;30.35;;;6.72;;
77522;SDS011;66637;-29.628;-49.938;2023-02-28T15:35:17;27.13;;;5.55;;
77522;SDS011;66637;-29.628;-49.938;2023-02-28T15:37:54;30.38;;;6.88;;
77522;SDS011;66637;-29.628;-49.938;2023-02-28T15:40:49;20.38;;;5.97;;
77522;SDS011;66637;-29.628;-49.938;2023-02-28T15:43:26;21.45;;;4.72;;
77522;SDS011;66637;-29.628;-49.938;2023-02-28T15:46:09;30.13;;;5.88;;
77522;SDS011;66637;-29.628;-49.938;2023-02-28T15:48:43;15.60;;;3.97;;
77522;SDS011;66637;-29.628;-49.938;2023-02-28T15:54:11;27.38;;;5.05;;
77522;SDS011;66637;-29.628;-49.938;2023-02-28T15:56:52;19.02;;;4.70;;
77522;SDS011;66637;-29.628;-49.938;2023-02-28T15:59:30;26.58;;;5.05;;
77522;SDS011;66637;-29.628;-49.938;2023-02-28T16:07:47;22.73;;;4.90;;
77522;SDS011;66637;-29.628;-49.938;2023-02-28T16:10:18;30.10;;;6.20;;
77522;SDS011;66637;-29.628;-49.938;2023-02-28T16:12:50;21.42;;;4.97;;
77522;SDS011;66637;-29.628;-49.938;2023-02-28T16:15:27;23.48;;;4.85;;
77522;SDS011;66637;-29.628;-49.938;2023-02-28T16:18:01;32.63;;;6.28;;
77522;SDS011;66637;-29.628;-49.938;2023-02-28T16:20:33;19.73;;;4.35;;
77522;SDS011;66637;-29.628;-49.938;2023-02-28T16:23:05;19.70;;;5.28;;
77522;SDS011;66637;-29.628;-49.938;2023-02-28T16:25:38;35.88;;;6.63;;
77522;SDS011;66637;-29.628;-49.938;2023-02-28T16:31:02;23.70;;;5.65;;
77522;SDS011;66637;-29.628;-49.938;2023-02-28T16:33:36;26.08;;;5.60;;
77522;SDS011;66637;-29.628;-49.938;2023-02-28T16:36:28;26.35;;;5.40;;
77522;SDS011;66637;-29.628;-49.938;2023-02-28T16:38:59;35.75;;;6.78;;
77522;SDS011;66637;-29.628;-49.938;2023-02-28T16:41:32;22.08;;;5.45;;
77522;SDS011;66637;-29.628;-49.938;2023-02-28T16:44:04;24.30;;;6.40;;
77522;SDS011;66637;-29.628;-49.938;2023-02-28T16:46:47;20.02;;;4.80;;
77522;SDS011;66637;-29.628;-49.938;2023-02-28T16:49:18;21.95;;;5.10;;
77522;SDS011;66637;-29.628;-49.938;2023-02-28T16:51:49;38.75;;;8.50;;
77522;SDS011;66637;-29.628;-49.938;2023-02-28T16:54:19;32.28;;;6.20;;
77522;SDS011;66637;-29.628;-49.938;2023-02-28T16:56:51;32.00;;;6.15;;
77522;SDS011;66637;-29.628;-49.938;2023-02-28T16:59:23;27.70;;;6.40;;
77522;SDS011;66637;-29.628;-49.938;2023-02-28T17:01:55;23.50;;;4.90;;
77522;SDS011;66637;-29.628;-49.938;2023-02-28T17:04:27;27.83;;;6.05;;
77522;SDS011;66637;-29.628;-49.938;2023-02-28T17:06:58;22.92;;;4.70;;
77522;SDS011;66637;-29.628;-49.938;2023-02-28T17:09:29;28.23;;;5.47;;
77522;SDS011;66637;-29.628;-49.938;2023-02-28T17:12:10;26.73;;;4.78;;
77522;SDS011;66637;-29.628;-49.938;2023-02-28T17:14:41;20.60;;;3.90;;
77522;SDS011;66637;-29.628;-49.938;2023-02-28T17:17:18;29.52;;;4.88;;
77522;SDS011;66637;-29.628;-49.938;2023-02-28T17:19:52;25.38;;;4.53;;
77522;SDS011;66637;-29.628;-49.938;2023-02-28T17:22:23;22.75;;;3.80;;
77522;SDS011;66637;-29.628;-49.938;2023-02-28T17:24:55;18.75;;;2.78;;
77522;SDS011;66637;-29.628;-49.938;2023-02-28T17:27:28;20.20;;;2.88;;
77522;SDS011;66637;-29.628;-49.938;2023-02-28T17:29:59;28.10;;;3.80;;
77522;SDS011;66637;-29.628;-49.938;2023-02-28T17:32:31;18.85;;;4.10;;